Reese, Georgia
Current Conditions -  °F | °C
As of 7:55 AM on Saturday 20 Dec 2014 (Local Time) from KHQU Reporting Station
Overcast Overcast  
Wind Chill: 48°   Ceiling: 4900
Heat Index: 48°   Visibility: 1.7mi
Dew Point: 48°   Wind: 0mph
Humidity: 100%   Direction: NA
Pressure: 30.23"   Gusts: NA
Location:  33.3862°N, 82.5904°W
Report Text: KHQU 201255Z AUTO 00000KT 1 3/4SM SCT019 BKN049 OVC065 09/09 A3023 RMK AO1 T00900090
Loading
Personal Weather Stations






























Interactive Weather Map New forecast layout! Learn more

10-Day Weather Forecast

Advertisements
Track Severe Weather on mobile